Time;durP1;ratioP1;P1;durP2;ratioP2;P2;SDS_P1;SDS_P2;PMS_P1;PMS_P2;Temp;Humidity;BMP_temperature;BMP_pressure;BME280_temperature;BME280_humidity;BME280_pressure;Samples;Min_cycle;Max_cycle;Signal;HPM_P1;HPM_P2
2022/07/07 00:02:18;;;;;;;41.05;30.35;;;;;;;23.53;57.88;95041.63;5031161;28;20641;-70
2022/07/07 00:04:45;;;;;;;5.60;5.20;;;;;;;23.57;57.72;95038.66;5030040;28;20231;-68
2022/07/07 00:07:12;;;;;;;4.97;4.03;;;;;;;23.53;58.01;95044.22;5030945;28;20211;-68
2022/07/07 00:09:38;;;;;;;3.97;3.70;;;;;;;23.54;57.76;95046.69;5029684;28;20211;-69
2022/07/07 00:12:07;;;;;;;3.97;3.78;;;;;;;23.48;58.49;95042.03;5030516;28;20850;-70
2022/07/07 00:14:35;;;;;;;4.32;4.13;;;;;;;23.38;58.36;95043.75;5029625;28;20238;-71
2022/07/07 00:17:02;;;;;;;3.85;3.65;;;;;;;23.40;58.72;95039.25;5030758;28;20277;-69
2022/07/07 00:19:29;;;;;;;4.20;3.90;;;;;;;23.38;58.41;95048.94;5030551;28;20304;-70
2022/07/07 00:21:56;;;;;;;3.72;3.42;;;;;;;23.40;58.59;95042.66;5030621;28;21895;-70
2022/07/07 00:24:23;;;;;;;3.60;3.40;;;;;;;23.39;58.50;95047.97;5030834;28;20257;-71
2022/07/07 00:26:49;;;;;;;3.80;3.50;;;;;;;23.38;58.92;95054.09;5031067;28;20268;-70
2022/07/07 00:29:17;;;;;;;3.78;3.58;;;;;;;23.30;59.01;95059.94;5030498;28;20712;-70
2022/07/07 00:31:44;;;;;;;3.90;3.70;;;;;;;23.27;59.04;95051.59;5029052;28;20669;-70
2022/07/07 00:34:11;;;;;;;3.80;3.63;;;;;;;23.33;59.14;95053.66;5030152;28;20325;-68
2022/07/07 00:36:39;;;;;;;5.15;3.70;;;;;;;23.34;59.10;95063.09;5030688;28;20203;-70
2022/07/07 00:39:06;;;;;;;6.38;3.95;;;;;;;23.32;58.88;95054.63;5030470;28;20216;-70
2022/07/07 00:41:34;;;;;;;3.65;3.55;;;;;;;23.24;59.31;95062.25;5029601;28;20766;-69
2022/07/07 00:44:01;;;;;;;5.22;3.40;;;;;;;23.23;59.35;95051.03;5030659;28;20257;-70
2022/07/07 00:46:41;;;;;;;5.72;4.22;;;;;;;23.27;59.39;95049.81;5030415;28;22380;-69
2022/07/07 00:49:10;;;;;;;3.83;3.53;;;;;;;23.24;59.29;95042.31;5030268;28;20311;-69
2022/07/07 00:51:37;;;;;;;3.78;3.47;;;;;;;23.23;58.66;95047.63;5030078;28;20224;-68
2022/07/07 00:54:04;;;;;;;3.85;3.75;;;;;;;23.21;58.96;95046.94;5029475;28;20273;-69
2022/07/07 00:56:31;;;;;;;3.60;3.40;;;;;;;23.08;59.40;95042.75;5029849;28;20242;-68
2022/07/07 00:59:02;;;;;;;3.78;3.60;;;;;;;23.02;59.44;95038.06;5030445;28;20210;-69
2022/07/07 01:01:31;;;;;;;3.08;2.97;;;;;;;23.04;59.38;95046.53;5029553;28;20712;-71
2022/07/07 01:03:59;;;;;;;3.80;3.53;;;;;;;23.14;58.79;95051.81;5030144;28;20680;-69
2022/07/07 01:06:27;;;;;;;4.00;3.75;;;;;;;23.17;58.98;95043.78;5029736;28;21223;-69
2022/07/07 01:08:54;;;;;;;4.05;3.85;;;;;;;23.19;58.95;95046.25;5029454;28;20207;-69
2022/07/07 01:11:21;;;;;;;3.42;3.30;;;;;;;23.14;58.62;95044.03;5028813;28;20233;-70
2022/07/07 01:13:48;;;;;;;4.05;3.75;;;;;;;23.06;59.00;95042.06;5029251;28;20203;-69
2022/07/07 01:16:15;;;;;;;3.97;3.78;;;;;;;23.06;59.00;95047.25;5030249;28;20203;-70
2022/07/07 01:18:44;;;;;;;3.85;3.65;;;;;;;23.03;59.14;95049.25;5029427;28;20650;-69
2022/07/07 01:21:14;;;;;;;3.42;2.90;;;;;;;23.00;58.84;95052.13;5028141;28;20210;-69
2022/07/07 01:23:42;;;;;;;3.50;3.20;;;;;;;22.91;59.28;95053.72;5029049;28;20285;-70
2022/07/07 01:26:09;;;;;;;3.33;3.20;;;;;;;22.84;59.15;95060.34;5028824;28;20688;-69
2022/07/07 01:28:35;;;;;;;3.53;3.33;;;;;;;22.68;59.52;95054.72;5029476;28;20210;-69
2022/07/07 01:31:02;;;;;;;3.33;3.15;;;;;;;22.66;59.88;95056.63;5028956;28;20194;-69
2022/07/07 01:33:29;;;;;;;3.53;3.33;;;;;;;22.56;60.07;95056.53;5028017;28;20206;-69
2022/07/07 01:35:56;;;;;;;3.55;3.33;;;;;;;22.54;60.45;95052.41;5027287;28;20933;-69
2022/07/07 01:38:22;;;;;;;3.78;3.58;;;;;;;22.49;60.18;95054.59;5027765;28;20202;-69
2022/07/07 01:40:51;;;;;;;3.72;3.53;;;;;;;22.57;60.39;95052.19;5027768;28;20211;-68
2022/07/07 01:43:17;;;;;;;3.20;3.00;;;;;;;22.51;59.95;95047.53;5028084;28;20206;-69
2022/07/07 01:45:44;;;;;;;3.42;3.22;;;;;;;22.46;60.50;95047.06;5027738;28;20210;-69
2022/07/07 01:48:11;;;;;;;3.30;3.10;;;;;;;22.47;60.65;95044.34;5029423;28;20269;-68
2022/07/07 01:50:37;;;;;;;3.53;2.75;;;;;;;22.60;60.10;95046.75;5029185;28;20238;-69
2022/07/07 01:53:04;;;;;;;3.25;2.95;;;;;;;22.66;59.96;95051.44;5028855;28;20691;-69
2022/07/07 01:55:31;;;;;;;3.63;3.42;;;;;;;22.54;59.65;95047.25;5028458;28;20226;-69
2022/07/07 01:57:59;;;;;;;2.95;2.85;;;;;;;22.23;60.94;95038.56;5029052;28;20293;-69
2022/07/07 02:00:26;;;;;;;3.00;2.90;;;;;;;22.20;60.96;95043.97;5028453;28;20229;-69
2022/07/07 02:02:53;;;;;;;4.18;3.33;;;;;;;22.23;60.78;95039.38;5028947;28;20209;-68
2022/07/07 02:05:19;;;;;;;3.80;3.58;;;;;;;22.08;61.12;95045.75;5027467;28;20789;-69
2022/07/07 02:07:47;;;;;;;3.03;2.92;;;;;;;22.12;60.94;95047.16;5028783;28;20207;-69
2022/07/07 02:11:12;;;;;;;3.30;3.10;;;;;;;22.37;60.11;95036.50;5028981;28;20288;-69
2022/07/07 02:13:05;;;;;;;3.40;3.20;;;;;;;22.16;60.91;95043.38;5028515;28;20207;-69
2022/07/07 02:15:32;;;;;;;3.53;3.20;;;;;;;22.13;60.86;95043.63;5028442;28;20230;-69
2022/07/07 02:17:59;;;;;;;3.60;3.30;;;;;;;22.18;60.43;95041.50;5028441;28;20211;-70
2022/07/07 02:20:27;;;;;;;3.10;3.00;;;;;;;22.22;60.05;95042.09;5028643;28;20673;-69
2022/07/07 02:22:54;;;;;;;3.28;2.55;;;;;;;22.29;60.21;95038.03;5028781;28;20255;-68
2022/07/07 02:25:21;;;;;;;3.53;2.65;;;;;;;22.36;59.81;95042.59;5028371;28;20429;-69
2022/07/07 02:27:47;;;;;;;3.38;3.05;;;;;;;22.46;59.69;95039.28;5028709;28;20198;-69
2022/07/07 02:30:16;;;;;;;2.75;2.50;;;;;;;22.56;59.09;95042.75;5028250;28;20214;-70
2022/07/07 02:32:42;;;;;;;2.58;2.47;;;;;;;22.59;58.71;95034.75;5029291;28;20257;-69
2022/07/07 02:35:09;;;;;;;2.92;2.72;;;;;;;22.51;58.55;95037.97;5027620;28;20720;-68
2022/07/07 02:37:36;;;;;;;2.85;2.67;;;;;;;22.24;59.16;95038.44;5028645;28;22002;-69
2022/07/07 02:40:03;;;;;;;2.83;2.70;;;;;;;22.03;59.92;95043.50;5028705;28;20633;-69
2022/07/07 02:42:30;;;;;;;2.63;2.53;;;;;;;22.03;59.94;95043.50;5028737;28;20249;-70
2022/07/07 02:44:57;;;;;;;3.20;2.80;;;;;;;22.08;59.77;95043.16;5027954;28;20873;-73
2022/07/07 02:47:25;;;;;;;3.03;2.83;;;;;;;22.11;59.93;95045.50;5028180;28;22460;-72
2022/07/07 02:49:52;;;;;;;2.60;2.40;;;;;;;22.20;59.23;95039.63;5028658;28;20224;-71
2022/07/07 02:52:18;;;;;;;2.70;2.50;;;;;;;21.94;59.42;95039.06;5028101;28;20249;-71
2022/07/07 02:54:45;;;;;;;3.95;2.90;;;;;;;21.90;60.11;95037.66;5027882;28;20614;-71
2022/07/07 02:57:13;;;;;;;2.92;2.70;;;;;;;21.50;60.62;95034.75;5027630;28;20242;-71
2022/07/07 02:59:39;;;;;;;3.40;2.50;;;;;;;21.37;61.57;95040.03;5028262;28;20334;-70
2022/07/07 03:02:06;;;;;;;2.78;2.50;;;;;;;21.27;61.97;95038.28;5028432;28;20261;-70
2022/07/07 03:04:34;;;;;;;6.07;2.95;;;;;;;21.20;61.63;95045.66;5028016;28;20234;-71
2022/07/07 03:07:01;;;;;;;2.72;2.47;;;;;;;21.24;61.61;95051.44;5027981;28;20614;-71
2022/07/07 03:09:28;;;;;;;2.60;2.45;;;;;;;21.12;61.98;95047.13;5027717;28;20296;-71
2022/07/07 03:11:54;;;;;;;2.58;2.38;;;;;;;21.23;62.03;95055.78;5028421;28;20199;-70
2022/07/07 03:14:21;;;;;;;2.70;2.13;;;;;;;21.53;60.99;95060.34;5028873;28;20202;-70
2022/07/07 03:16:48;;;;;;;2.45;1.92;;;;;;;21.68;60.64;95061.78;5030795;28;20210;-69
2022/07/07 03:19:15;;;;;;;2.50;2.40;;;;;;;21.85;59.83;95068.22;5031512;28;20644;-70
2022/07/07 03:21:43;;;;;;;3.15;3.00;;;;;;;21.91;59.84;95056.56;5031678;28;20692;-70
2022/07/07 03:24:10;;;;;;;3.60;2.63;;;;;;;21.80;59.43;95056.56;5031972;28;20743;-71
2022/07/07 03:26:36;;;;;;;3.78;2.90;;;;;;;21.59;60.73;95059.88;5031646;28;20268;-70
2022/07/07 03:29:03;;;;;;;2.50;2.30;;;;;;;21.83;59.87;95058.94;5031927;28;20203;-70
2022/07/07 03:31:30;;;;;;;2.67;2.58;;;;;;;21.93;59.47;95060.69;5031887;28;20296;-70
2022/07/07 03:33:57;;;;;;;3.70;2.85;;;;;;;22.38;58.20;95064.03;5031311;28;20934;-70
2022/07/07 03:36:24;;;;;;;3.70;2.35;;;;;;;23.68;54.69;95061.94;5031327;28;20320;-71
2022/07/07 03:38:52;;;;;;;2.45;2.35;;;;;;;25.33;50.43;95057.69;5031981;28;20663;-71
2022/07/07 03:41:19;;;;;;;5.70;2.22;;;;;;;26.64;46.41;95059.16;5031372;28;21848;-70
2022/07/07 03:43:46;;;;;;;3.30;1.88;;;;;;;27.29;44.48;95054.44;5031981;28;20241;-71
2022/07/07 03:46:12;;;;;;;2.10;2.00;;;;;;;27.29;44.57;95056.25;5031205;28;20203;-70
2022/07/07 03:48:39;;;;;;;2.10;1.92;;;;;;;27.67;43.65;95053.25;5031107;28;20239;-71
2022/07/07 03:51:06;;;;;;;4.32;2.20;;;;;;;27.38;44.26;95063.16;5031734;28;20199;-70
2022/07/07 03:53:33;;;;;;;2.22;2.05;;;;;;;26.97;45.29;95070.72;5031997;28;20207;-70
2022/07/07 03:56:02;;;;;;;2.08;1.70;;;;;;;27.41;44.04;95068.91;5030913;28;20226;-70
2022/07/07 03:58:28;;;;;;;2.22;1.77;;;;;;;28.35;42.18;95055.81;5031289;28;20203;-70
2022/07/07 04:00:55;;;;;;;2.25;2.15;;;;;;;29.40;39.62;95051.66;5031026;28;20261;-70
2022/07/07 04:03:22;;;;;;;1.83;1.73;;;;;;;29.76;39.05;95063.31;5030948;28;21060;-70
2022/07/07 04:05:49;;;;;;;2.67;2.10;;;;;;;30.31;38.23;95062.47;5030448;28;20268;-70
2022/07/07 04:08:16;;;;;;;5.35;4.95;;;;;;;31.17;36.37;95065.88;5031348;28;20237;-70
2022/07/07 04:10:42;;;;;;;8.18;6.57;;;;;;;31.78;35.39;95052.47;5030818;28;20207;-70
2022/07/07 04:13:11;;;;;;;5.00;4.60;;;;;;;31.57;35.61;95054.97;5030805;28;20211;-70
2022/07/07 04:15:37;;;;;;;3.50;3.20;;;;;;;30.31;38.02;95057.22;5030225;28;20284;-69
2022/07/07 04:18:04;;;;;;;4.18;2.70;;;;;;;29.52;38.92;95054.72;5030846;28;20582;-70
2022/07/07 04:20:32;;;;;;;1.65;1.65;;;;;;;28.40;41.71;95056.16;5030292;28;20567;-70
2022/07/07 04:22:59;;;;;;;3.33;3.03;;;;;;;27.64;43.01;95056.16;5030595;28;20264;-71
2022/07/07 04:25:26;;;;;;;8.27;7.57;;;;;;;26.95;44.72;95064.81;5030292;28;20195;-72
2022/07/07 04:27:53;;;;;;;20.70;11.32;;;;;;;26.55;45.59;95067.84;5030013;28;20207;-70
2022/07/07 04:30:21;;;;;;;5.20;4.90;;;;;;;26.34;46.21;95068.13;5030098;28;20598;-70
2022/07/07 04:32:48;;;;;;;3.60;3.30;;;;;;;26.25;46.87;95061.16;5030867;28;20206;-69
2022/07/07 04:35:15;;;;;;;2.80;2.60;;;;;;;25.87;47.55;95072.63;5030250;28;20219;-69
2022/07/07 04:37:42;;;;;;;2.20;2.10;;;;;;;26.11;47.30;95072.09;5030596;28;20215;-70
2022/07/07 04:40:09;;;;;;;3.08;2.08;;;;;;;26.14;46.58;95063.97;5030020;28;21070;-70
2022/07/07 04:42:36;;;;;;;2.03;1.92;;;;;;;26.32;46.33;95072.66;5030141;28;20264;-70
2022/07/07 04:45:03;;;;;;;5.68;5.05;;;;;;;26.54;45.68;95070.59;5030365;28;20302;-70
2022/07/07 04:47:32;;;;;;;3.03;2.13;;;;;;;26.58;45.72;95064.13;5030469;28;20280;-70
2022/07/07 04:49:58;;;;;;;4.13;3.83;;;;;;;26.73;45.74;95070.44;5029727;28;20272;-70
2022/07/07 04:52:25;;;;;;;3.10;2.78;;;;;;;27.19;44.99;95073.81;5030447;28;20280;-70
2022/07/07 04:54:52;;;;;;;2.00;1.90;;;;;;;28.08;42.65;95079.53;5030025;28;20211;-70
2022/07/07 04:57:18;;;;;;;10.85;9.85;;;;;;;29.45;39.84;95075.50;5029458;28;20339;-70
2022/07/07 04:59:45;;;;;;;12.60;10.48;;;;;;;30.61;38.50;95067.91;5029629;28;20199;-70
2022/07/07 05:02:12;;;;;;;8.40;7.60;;;;;;;30.56;38.13;95076.28;5030326;28;20211;-70
2022/07/07 05:04:40;;;;;;;8.77;7.40;;;;;;;29.96;39.07;95073.41;5030035;28;20223;-70
2022/07/07 05:07:07;;;;;;;15.15;11.15;;;;;;;29.16;40.27;95073.41;5028930;28;20202;-70
2022/07/07 05:09:35;;;;;;;11.45;9.63;;;;;;;28.27;41.79;95073.25;5029614;28;20210;-69
2022/07/07 05:12:01;;;;;;;14.82;9.68;;;;;;;27.62;43.09;95065.94;5029889;28;20215;-70
2022/07/07 05:14:28;;;;;;;5.63;5.13;;;;;;;27.10;43.90;95068.50;5029949;28;20656;-70
2022/07/07 05:16:55;;;;;;;3.95;3.60;;;;;;;26.84;45.00;95072.84;5029344;28;20292;-70
2022/07/07 05:19:23;;;;;;;5.20;4.47;;;;;;;27.36;44.74;95063.31;5029675;28;20203;-69
2022/07/07 05:21:51;;;;;;;2.58;2.42;;;;;;;28.98;41.28;95063.09;5029695;28;20203;-69
2022/07/07 05:24:18;;;;;;;4.63;3.60;;;;;;;31.46;36.78;95065.91;5029247;28;20664;-69
2022/07/07 05:26:45;;;;;;;8.55;7.75;;;;;;;33.96;32.01;95059.88;5029357;28;20494;-69
2022/07/07 05:29:11;;;;;;;5.10;4.80;;;;;;;35.03;30.87;95062.69;5029374;28;20218;-69
2022/07/07 05:31:38;;;;;;;3.35;3.08;;;;;;;36.33;28.56;95059.31;5029533;28;20625;-69
2022/07/07 05:34:05;;;;;;;4.20;3.67;;;;;;;36.52;27.94;95057.56;5029623;28;20203;-69
2022/07/07 05:36:33;;;;;;;5.25;3.88;;;;;;;36.60;28.33;95059.97;5028660;28;20234;-70
2022/07/07 05:39:01;;;;;;;3.38;3.10;;;;;;;37.05;27.46;95065.22;5029642;28;20221;-70
2022/07/07 05:41:28;;;;;;;3.22;3.03;;;;;;;36.20;28.66;95064.59;5028928;28;20198;-70
2022/07/07 05:43:55;;;;;;;3.30;3.10;;;;;;;35.83;28.67;95073.28;5029580;28;20293;-70
2022/07/07 05:46:22;;;;;;;3.03;2.70;;;;;;;35.09;29.81;95061.88;5028945;28;20463;-70
2022/07/07 05:48:49;;;;;;;2.70;2.50;;;;;;;34.24;30.50;95061.63;5029376;28;20221;-69
2022/07/07 05:51:15;;;;;;;2.58;2.47;;;;;;;34.46;30.75;95071.06;5029035;28;20621;-70
2022/07/07 05:53:42;;;;;;;2.33;2.22;;;;;;;33.85;31.44;95070.16;5029001;28;20261;-69
2022/07/07 05:56:10;;;;;;;3.45;2.70;;;;;;;34.66;30.64;95064.00;5028227;28;20230;-69
2022/07/07 05:58:37;;;;;;;2.55;2.25;;;;;;;34.97;29.99;95066.13;5029198;28;20210;-69
2022/07/07 06:01:04;;;;;;;2.30;2.20;;;;;;;35.44;29.59;95069.63;5028437;28;20211;-70
2022/07/07 06:03:31;;;;;;;2.97;2.10;;;;;;;35.77;29.06;95061.69;5029008;28;20703;-69
2022/07/07 06:05:58;;;;;;;3.17;2.92;;;;;;;35.55;29.10;95061.09;5028087;28;20268;-71
2022/07/07 06:08:27;;;;;;;2.35;2.25;;;;;;;34.62;30.66;95064.63;5028766;28;20195;-68
2022/07/07 06:10:53;;;;;;;2.55;2.35;;;;;;;34.02;31.63;95063.56;5027708;28;20210;-68
2022/07/07 06:13:22;;;;;;;2.50;2.30;;;;;;;33.61;32.21;95064.31;5028745;28;20203;-70
2022/07/07 06:15:49;;;;;;;2.13;2.03;;;;;;;34.40;30.92;95061.28;5028011;28;21200;-70
2022/07/07 06:18:16;;;;;;;2.13;2.03;;;;;;;34.69;30.16;95074.16;5028509;28;20206;-69
2022/07/07 06:20:42;;;;;;;4.75;2.63;;;;;;;34.27;30.59;95077.88;5028335;28;20249;-69
2022/07/07 06:23:09;;;;;;;2.35;2.25;;;;;;;33.67;32.03;95089.88;5028882;28;20214;-69
2022/07/07 06:25:36;;;;;;;2.10;2.00;;;;;;;32.66;33.05;95088.38;5028328;28;20276;-70
2022/07/07 06:28:03;;;;;;;2.45;2.10;;;;;;;31.79;34.58;95083.00;5028946;28;20218;-68
2022/07/07 06:30:32;;;;;;;2.95;2.45;;;;;;;31.43;35.62;95082.84;5027653;28;20218;-69
2022/07/07 06:32:58;;;;;;;3.83;2.33;;;;;;;31.25;35.76;95078.91;5028570;28;20227;-69
2022/07/07 06:35:26;;;;;;;2.20;2.00;;;;;;;31.04;36.02;95082.19;5028324;28;21694;-69
2022/07/07 06:37:53;;;;;;;1.77;1.67;;;;;;;31.18;36.02;95081.47;5027946;28;20746;-69
2022/07/07 06:40:20;;;;;;;5.75;2.22;;;;;;;30.74;36.78;95078.63;5027656;28;20333;-68
2022/07/07 06:42:47;;;;;;;2.13;2.03;;;;;;;31.06;36.42;95082.81;5028871;28;20211;-71
2022/07/07 06:45:14;;;;;;;2.30;2.10;;;;;;;30.98;36.57;95069.75;5028857;28;20214;-70
2022/07/07 06:47:42;;;;;;;2.60;2.10;;;;;;;31.11;36.50;95070.00;5028377;28;20203;-69
2022/07/07 06:50:10;;;;;;;2.75;2.33;;;;;;;31.05;36.54;95071.50;5028790;28;20206;-71
2022/07/07 06:52:36;;;;;;;3.13;2.03;;;;;;;30.97;36.64;95068.94;5031997;28;20298;-69
2022/07/07 06:55:04;;;;;;;9.50;2.70;;;;;;;30.70;37.13;95069.47;5030843;28;20214;-69
2022/07/07 06:57:30;;;;;;;2.00;1.90;;;;;;;30.89;37.09;95066.41;5031869;28;20341;-70
2022/07/07 06:59:57;;;;;;;4.00;3.60;;;;;;;30.80;37.19;95062.19;5053188;22;20932;-70
2022/07/07 07:02:25;;;;;;;2.45;2.20;;;;;;;30.07;38.22;95070.44;5031107;28;20207;-69
2022/07/07 07:04:54;;;;;;;5.55;2.60;;;;;;;29.68;39.04;95068.59;5025240;28;20227;-70
2022/07/07 07:07:20;;;;;;;4.45;2.20;;;;;;;29.58;39.39;95073.19;5012039;28;20203;-69
2022/07/07 07:09:47;;;;;;;4.05;2.17;;;;;;;29.52;38.51;95058.16;5012438;28;21559;-69
2022/07/07 07:12:14;;;;;;;2.88;2.67;;;;;;;29.30;39.24;95066.66;5011822;28;20273;-70
2022/07/07 07:14:41;;;;;;;2.13;1.98;;;;;;;29.21;38.89;95065.03;5012252;28;20208;-70
2022/07/07 07:17:08;;;;;;;3.67;2.10;;;;;;;29.07;39.50;95071.75;5013009;28;20231;-70
2022/07/07 07:19:34;;;;;;;2.35;2.15;;;;;;;29.44;38.90;95064.25;5012306;28;20595;-69
2022/07/07 07:22:02;;;;;;;2.67;2.55;;;;;;;29.55;38.21;95075.31;5011733;28;20207;-71
2022/07/07 07:24:29;;;;;;;3.08;2.70;;;;;;;29.60;37.49;95065.19;5011944;28;20199;-70
2022/07/07 07:26:56;;;;;;;2.92;2.70;;;;;;;29.49;38.19;95068.94;5012097;28;20210;-70
2022/07/07 07:29:23;;;;;;;2.28;2.17;;;;;;;29.61;37.56;95067.63;5012910;28;20674;-70
2022/07/07 07:31:50;;;;;;;6.05;3.05;;;;;;;29.49;37.08;95068.94;5011950;28;20211;-71
2022/07/07 07:34:17;;;;;;;2.35;1.92;;;;;;;29.54;37.82;95064.03;5012066;28;20204;-69
2022/07/07 07:36:43;;;;;;;4.55;2.33;;;;;;;29.74;37.79;95070.53;5012020;28;20223;-70
2022/07/07 07:39:12;;;;;;;5.43;2.55;;;;;;;29.51;37.80;95064.38;5011843;28;20214;-70
2022/07/07 07:41:39;;;;;;;3.33;2.13;;;;;;;29.39;38.64;95069.13;5011236;28;20216;-69
2022/07/07 07:44:06;;;;;;;3.17;1.90;;;;;;;29.44;38.64;95068.66;5011986;28;20207;-70
2022/07/07 07:46:32;;;;;;;2.80;2.60;;;;;;;29.61;37.63;95075.50;5011660;28;20204;-70
2022/07/07 07:49:00;;;;;;;4.65;2.75;;;;;;;29.74;38.17;95062.66;5011686;28;20203;-70
2022/07/07 07:51:27;;;;;;;3.17;2.97;;;;;;;29.86;38.16;95072.78;5011210;28;20208;-70
2022/07/07 07:53:54;;;;;;;3.80;3.50;;;;;;;29.79;37.49;95062.97;5011592;28;20258;-69
2022/07/07 07:56:22;;;;;;;3.88;3.10;;;;;;;29.62;38.33;95065.84;5011275;28;20783;-69
2022/07/07 07:58:48;;;;;;;2.00;1.90;;;;;;;29.44;36.53;95058.19;5011045;28;20912;-69
2022/07/07 08:01:15;;;;;;;2.22;2.13;;;;;;;29.38;37.82;95070.09;5010514;28;20200;-69
2022/07/07 08:03:42;;;;;;;3.00;1.85;;;;;;;29.43;36.02;95067.03;5009589;28;20759;-68
2022/07/07 08:06:09;;;;;;;3.40;2.22;;;;;;;29.42;36.82;95070.63;5010581;28;20239;-69
2022/07/07 08:08:35;;;;;;;4.65;1.98;;;;;;;29.34;36.62;95073.22;5011550;28;20204;-70
2022/07/07 08:11:02;;;;;;;1.65;1.63;;;;;;;29.37;36.66;95078.13;5010871;28;20196;-70
2022/07/07 08:13:30;;;;;;;1.70;1.60;;;;;;;29.53;37.49;95070.25;5011546;28;20208;-69
2022/07/07 08:15:57;;;;;;;3.10;2.72;;;;;;;29.64;37.33;95067.28;5011132;28;20204;-71
2022/07/07 08:18:26;;;;;;;2.60;2.40;;;;;;;29.70;36.99;95073.66;5009285;28;21146;-69
2022/07/07 08:20:53;;;;;;;4.03;3.60;;;;;;;29.47;37.29;95070.09;5008908;28;20289;-69
2022/07/07 08:23:20;;;;;;;3.45;3.22;;;;;;;29.13;38.18;95080.75;5009329;28;20203;-69
2022/07/07 08:25:47;;;;;;;3.67;2.17;;;;;;;28.60;39.21;95074.97;5010097;28;20199;-70
2022/07/07 08:28:14;;;;;;;2.40;2.20;;;;;;;28.62;39.44;95073.00;5009164;28;20673;-70
2022/07/07 08:30:42;;;;;;;5.25;2.58;;;;;;;28.70;39.65;95074.84;5007392;28;21681;-70
2022/07/07 08:33:09;;;;;;;6.93;2.15;;;;;;;28.78;39.60;95078.25;5009046;28;20285;-69
2022/07/07 08:35:36;;;;;;;3.38;2.40;;;;;;;29.26;38.86;95065.34;5009301;28;20258;-69
2022/07/07 08:38:03;;;;;;;3.80;2.10;;;;;;;29.15;38.21;95069.16;5009229;28;20231;-70
2022/07/07 08:40:29;;;;;;;3.70;1.75;;;;;;;28.55;38.91;95084.28;5009885;28;20200;-70
2022/07/07 08:42:56;;;;;;;1.92;1.83;;;;;;;28.15;40.32;95085.78;5010860;28;20207;-69
2022/07/07 08:45:23;;;;;;;2.22;2.13;;;;;;;27.82;40.70;95084.81;5010219;28;20364;-69
2022/07/07 08:47:52;;;;;;;1.80;1.75;;;;;;;27.51;42.03;95076.59;5010459;28;20308;-69
2022/07/07 08:50:18;;;;;;;3.55;1.83;;;;;;;27.84;40.90;95079.44;5008625;28;20600;-71
2022/07/07 08:52:50;;;;;;;2.83;2.13;;;;;;;28.01;42.08;95075.91;5008327;28;20695;-68
2022/07/07 08:55:21;;;;;;;2.22;2.03;;;;;;;28.41;41.04;95076.09;5008915;28;20207;-69
2022/07/07 08:57:50;;;;;;;2.67;1.70;;;;;;;28.73;40.58;95066.63;5008620;28;20669;-69
2022/07/07 09:00:17;;;;;;;2.90;2.35;;;;;;;29.08;39.54;95060.31;5007846;28;20282;-68
2022/07/07 09:02:44;;;;;;;3.15;2.95;;;;;;;29.02;40.02;95064.41;5008025;28;20259;-70
2022/07/07 09:05:12;;;;;;;2.45;2.35;;;;;;;28.99;39.73;95069.94;5009291;28;20223;-68
2022/07/07 09:07:46;;;;;;;4.13;2.55;;;;;;;28.99;38.98;95067.34;5010037;28;20200;-68
2022/07/07 09:10:27;;;;;;;2.60;2.10;;;;;;;28.79;39.46;95066.81;5009962;28;20203;-70
2022/07/07 09:12:54;;;;;;;2.50;2.40;;;;;;;29.02;39.74;95063.56;5008435;28;20867;-68
2022/07/07 09:15:21;;;;;;;4.57;4.03;;;;;;;28.89;40.41;95068.50;5009785;28;20196;-69
2022/07/07 09:17:48;;;;;;;2.80;2.60;;;;;;;28.55;41.15;95068.59;5010237;28;20227;-70
2022/07/07 09:20:16;;;;;;;4.20;2.97;;;;;;;28.40;41.17;95068.41;5010178;28;20254;-69
2022/07/07 09:22:55;;;;;;;3.72;2.70;;;;;;;28.34;41.58;95076.88;5009755;28;20208;-69
2022/07/07 09:25:23;;;;;;;6.95;6.15;;;;;;;28.43;41.49;95073.31;5009346;28;20734;-68
2022/07/07 09:27:55;;;;;;;13.07;9.60;;;;;;;28.23;41.70;95067.50;5008559;28;20254;-69
2022/07/07 09:30:34;;;;;;;2.13;1.92;;;;;;;27.93;41.89;95068.06;5006850;28;20265;-69
2022/07/07 09:33:03;;;;;;;3.88;3.53;;;;;;;27.91;41.99;95067.38;5008342;28;20208;-68
2022/07/07 09:38:22;;;;;;;3.47;3.28;;;;;;;28.43;41.66;95063.69;5008975;28;20226;-68
2022/07/07 09:41:02;;;;;;;3.55;3.20;;;;;;;28.49;41.04;95056.97;5008259;28;20606;-68
2022/07/07 09:43:31;;;;;;;2.83;2.60;;;;;;;28.30;41.56;95058.06;5007812;28;20215;-68
2022/07/07 09:46:15;;;;;;;3.33;3.03;;;;;;;28.59;41.75;95049.81;5006794;28;20208;-71
2022/07/07 09:48:44;;;;;;;2.40;2.10;;;;;;;28.66;41.02;95052.59;5004318;28;20207;-69
2022/07/07 09:51:22;;;;;;;2.70;2.50;;;;;;;29.08;40.20;95048.03;5006033;28;20234;-69
2022/07/07 09:54:00;;;;;;;2.47;2.28;;;;;;;29.22;40.20;95053.56;5006415;28;20744;-68
2022/07/07 09:56:28;;;;;;;3.55;3.35;;;;;;;29.29;39.16;95049.31;5007314;28;20689;-68
2022/07/07 09:58:55;;;;;;;4.03;3.03;;;;;;;29.17;39.86;95046.25;5007575;28;20228;-70
2022/07/07 10:01:26;;;;;;;3.10;2.38;;;;;;;29.28;39.96;95052.94;5007708;28;20541;-70
2022/07/07 10:03:57;;;;;;;2.38;2.28;;;;;;;29.00;40.15;95055.88;5008777;28;20200;-70
2022/07/07 10:06:27;;;;;;;3.05;2.85;;;;;;;28.79;40.53;95048.50;5009104;28;20324;-71
2022/07/07 10:08:57;;;;;;;7.00;3.78;;;;;;;28.77;40.99;95054.88;5009278;28;20210;-70
2022/07/07 10:11:35;;;;;;;3.45;3.15;;;;;;;28.99;41.08;95049.03;5008228;28;20677;-69
2022/07/07 10:14:10;;;;;;;3.28;2.40;;;;;;;29.35;39.65;95043.44;5010192;28;20204;-69
2022/07/07 10:16:38;;;;;;;10.02;6.40;;;;;;;29.66;39.56;95033.09;5009000;28;20305;-70
2022/07/07 10:19:05;;;;;;;2.00;1.90;;;;;;;29.24;39.61;95035.91;5009016;28;20227;-68
2022/07/07 10:21:33;;;;;;;3.22;2.22;;;;;;;28.54;41.57;95025.13;5008976;28;20207;-70
2022/07/07 10:24:01;;;;;;;3.55;2.20;;;;;;;28.32;42.09;95040.44;5009581;28;20336;-71
2022/07/07 10:26:38;;;;;;;4.43;2.88;;;;;;;28.38;42.12;95031.16;5009549;28;20762;-70
2022/07/07 10:29:06;;;;;;;8.93;3.05;;;;;;;28.59;41.51;95026.28;5009458;28;20203;-70
2022/07/07 10:31:33;;;;;;;2.63;2.42;;;;;;;29.06;40.42;95029.06;5008315;28;20304;-71
2022/07/07 10:34:02;;;;;;;1.75;1.63;;;;;;;29.00;39.82;95027.09;5008944;28;20285;-69
2022/07/07 10:37:02;;;;;;;3.88;1.77;;;;;;;29.07;40.06;95017.63;5008600;28;20395;-70
2022/07/07 10:39:37;;;;;;;2.70;2.50;;;;;;;29.28;40.00;95026.75;5008560;28;20219;-69
2022/07/07 10:42:06;;;;;;;2.33;2.10;;;;;;;29.34;39.08;95021.66;5008637;28;20747;-69
2022/07/07 10:44:34;;;;;;;2.10;2.00;;;;;;;29.28;39.61;95011.88;5008359;28;20258;-69
2022/07/07 10:47:05;;;;;;;2.33;2.22;;;;;;;29.15;40.34;95016.00;5008613;28;20289;-70
2022/07/07 10:49:39;;;;;;;2.22;2.08;;;;;;;28.55;41.51;95018.91;5008425;28;20297;-69
2022/07/07 10:52:12;;;;;;;1.90;1.80;;;;;;;28.23;41.79;95010.03;5009413;28;20214;-69
2022/07/07 10:54:39;;;;;;;1.90;1.80;;;;;;;27.98;42.21;95016.94;5009258;28;20214;-69
2022/07/07 10:57:17;;;;;;;5.40;2.30;;;;;;;28.09;42.17;95010.63;5008821;28;20896;-69
2022/07/07 11:00:18;;;;;;;3.00;1.98;;;;;;;28.21;42.12;95022.44;5007855;28;20305;-69
2022/07/07 11:02:49;;;;;;;2.13;2.03;;;;;;;28.62;40.77;95014.66;5009164;28;20207;-69
2022/07/07 11:05:34;;;;;;;2.20;2.10;;;;;;;28.57;40.69;95006.50;5008152;28;20227;-69
2022/07/07 11:08:20;;;;;;;4.10;2.20;;;;;;;28.90;41.07;95002.94;5007965;28;20719;-69
2022/07/07 11:10:50;;;;;;;2.00;1.83;;;;;;;28.56;40.68;95000.44;5008498;28;20208;-70
2022/07/07 11:13:20;;;;;;;2.35;2.15;;;;;;;28.09;42.34;94997.56;5007824;28;20270;-70
2022/07/07 11:15:50;;;;;;;2.10;2.00;;;;;;;27.81;42.75;94998.78;5008078;28;20215;-70
2022/07/07 11:18:18;;;;;;;4.10;2.40;;;;;;;27.58;42.62;95001.97;5008233;28;20228;-69
2022/07/07 11:21:01;;;;;;;1.92;1.75;;;;;;;27.46;43.64;94997.16;5008823;28;22163;-69
2022/07/07 11:23:44;;;;;;;2.42;2.20;;;;;;;27.28;43.17;94992.78;5007955;28;20293;-70
2022/07/07 11:26:11;;;;;;;3.17;2.97;;;;;;;27.51;42.97;94987.84;5008946;28;20254;-69
2022/07/07 11:28:38;;;;;;;2.85;2.10;;;;;;;28.15;41.60;94975.22;5008633;28;20805;-70
2022/07/07 11:31:07;;;;;;;2.60;2.00;;;;;;;28.36;41.36;94981.63;5008475;28;20218;-68
2022/07/07 11:33:34;;;;;;;3.88;2.45;;;;;;;28.33;41.62;94984.56;5007920;28;20700;-69
2022/07/07 11:36:10;;;;;;;2.50;1.90;;;;;;;28.23;42.11;94976.06;5007868;28;20204;-68
2022/07/07 11:38:38;;;;;;;2.17;2.00;;;;;;;28.10;42.26;94967.84;5011740;28;20227;-69
2022/07/07 11:41:05;;;;;;;2.50;1.80;;;;;;;28.20;42.05;94965.94;5012075;28;20208;-69
2022/07/07 11:43:32;;;;;;;4.10;1.92;;;;;;;27.95;42.58;94974.69;5011828;28;20204;-69